createdAt,value
2017-08-29T00:01:52.222Z,86.25
2017-08-29T00:04:21.754Z,85.33
2017-08-29T00:06:51.419Z,86.26
2017-08-29T00:09:21.060Z,86.19
2017-08-29T00:11:51.145Z,85.79
2017-08-29T00:14:21.377Z,84.59
2017-08-29T00:16:51.077Z,85.29
2017-08-29T00:19:20.664Z,85.53
2017-08-29T00:21:50.195Z,85.12
2017-08-29T00:24:19.752Z,85.07
2017-08-29T00:26:49.744Z,85.68
2017-08-29T00:29:19.657Z,87.10
2017-08-29T00:31:49.340Z,85.17
2017-08-29T00:34:19.061Z,86.53
2017-08-29T00:36:48.632Z,85.87
2017-08-29T00:39:18.198Z,85.13
2017-08-29T00:41:48.136Z,86.34
2017-08-29T00:44:18.157Z,86.60
2017-08-29T00:46:48.146Z,85.33
2017-08-29T00:49:17.638Z,86.62
2017-08-29T00:51:47.243Z,85.95
2017-08-29T00:54:16.775Z,86.93
2017-08-29T00:56:46.485Z,86.38
2017-08-29T00:59:16.067Z,84.83
2017-08-29T01:01:45.651Z,85.98
2017-08-29T01:04:15.176Z,86.78
2017-08-29T01:06:44.764Z,86.70
2017-08-29T01:09:17.825Z,87.28
2017-08-29T01:11:49.100Z,87.65
2017-08-29T01:14:18.757Z,86.17
2017-08-29T01:16:48.431Z,87.35
2017-08-29T01:19:18.048Z,86.50
2017-08-29T01:21:47.629Z,87.55
2017-08-29T01:24:17.184Z,87.10
2017-08-29T01:26:46.737Z,87.33
2017-08-29T01:29:16.427Z,87.32
2017-08-29T01:31:46.016Z,87.49
2017-08-29T01:34:15.846Z,87.52
2017-08-29T01:36:45.534Z,86.72
2017-08-29T01:39:15.238Z,86.63
2017-08-29T01:41:44.844Z,86.18
2017-08-29T01:44:14.360Z,86.17
2017-08-29T01:46:44.050Z,87.11
2017-08-29T01:49:13.532Z,88.15
2017-08-29T01:51:43.188Z,87.67
2017-08-29T01:54:12.904Z,87.30
2017-08-29T01:56:42.487Z,87.88
2017-08-29T01:59:12.022Z,88.00
2017-08-29T02:01:41.630Z,87.71
2017-08-29T02:04:11.185Z,87.70
2017-08-29T02:06:41.222Z,87.09
2017-08-29T02:09:10.756Z,87.61
2017-08-29T02:11:40.314Z,88.27
2017-08-29T02:14:09.820Z,86.57
2017-08-29T02:16:39.784Z,86.16
2017-08-29T02:19:09.345Z,86.98
2017-08-29T02:21:38.974Z,87.26
2017-08-29T02:24:08.509Z,87.11
2017-08-29T02:26:38.057Z,87.66
2017-08-29T02:29:07.856Z,87.45
2017-08-29T02:31:37.767Z,86.26
2017-08-29T02:34:07.341Z,87.99
2017-08-29T02:36:38.255Z,85.86
2017-08-29T02:39:07.854Z,87.76
2017-08-29T02:41:37.719Z,87.91
2017-08-29T02:44:07.244Z,88.24
2017-08-29T02:46:36.797Z,87.87
2017-08-29T02:49:06.286Z,87.20
2017-08-29T02:51:35.882Z,88.03
2017-08-29T02:54:05.390Z,87.86
2017-08-29T02:56:35.263Z,86.24
2017-08-29T02:59:04.793Z,87.39
2017-08-29T03:01:34.476Z,86.75
2017-08-29T03:04:04.054Z,87.11
2017-08-29T03:06:33.640Z,86.39
2017-08-29T03:09:03.181Z,86.78
2017-08-29T03:11:32.745Z,87.77
2017-08-29T03:14:02.318Z,88.32
2017-08-29T03:16:32.053Z,86.92
2017-08-29T03:19:01.851Z,86.73
2017-08-29T03:21:31.480Z,87.64
2017-08-29T03:24:01.138Z,87.47
2017-08-29T03:26:31.528Z,86.79
2017-08-29T03:29:01.421Z,86.42
2017-08-29T03:31:30.995Z,86.44
2017-08-29T03:34:00.526Z,88.08
2017-08-29T03:36:30.354Z,88.74
2017-08-29T03:38:59.902Z,88.06
2017-08-29T03:41:29.429Z,87.68
2017-08-29T03:43:58.933Z,87.82
2017-08-29T03:46:28.912Z,87.62
2017-08-29T03:48:58.461Z,88.05
2017-08-29T03:51:28.001Z,88.25
2017-08-29T03:53:57.519Z,87.83
2017-08-29T03:56:27.110Z,87.78
2017-08-29T03:58:56.611Z,88.87
2017-08-29T04:04:22.437Z,87.93
2017-08-29T04:06:51.878Z,88.01
2017-08-29T04:09:21.213Z,87.90
2017-08-29T04:11:50.750Z,87.56
2017-08-29T04:14:21.960Z,87.78
2017-08-29T04:16:51.861Z,88.64
2017-08-29T04:19:21.202Z,88.30
2017-08-29T04:21:50.614Z,89.41
2017-08-29T04:24:19.919Z,88.83
2017-08-29T04:26:50.663Z,88.85
2017-08-29T04:29:20.768Z,88.06
2017-08-29T04:31:50.367Z,86.51
2017-08-29T04:34:19.677Z,88.15
2017-08-29T04:36:49.200Z,88.53
2017-08-29T04:39:18.495Z,88.59
2017-08-29T04:41:47.985Z,88.49
2017-08-29T04:44:22.167Z,88.88
2017-08-29T04:46:59.082Z,88.61
2017-08-29T04:49:30.952Z,87.56
2017-08-29T04:52:01.106Z,87.43
2017-08-29T04:54:30.588Z,87.72
2017-08-29T04:57:00.016Z,88.96
2017-08-29T04:59:32.293Z,87.78
2017-08-29T05:02:02.482Z,88.77
2017-08-29T05:04:32.293Z,88.43
2017-08-29T05:07:01.651Z,87.84
2017-08-29T05:09:31.116Z,89.14
2017-08-29T05:12:00.540Z,90.03
2017-08-29T05:14:30.237Z,89.31
2017-08-29T05:16:59.691Z,88.62
2017-08-29T05:19:29.169Z,88.31
2017-08-29T05:21:58.513Z,89.72
2017-08-29T05:24:27.870Z,88.20
2017-08-29T05:26:57.409Z,88.10
2017-08-29T05:29:26.926Z,87.74
2017-08-29T05:31:56.411Z,87.22
2017-08-29T05:34:25.757Z,88.26
2017-08-29T05:36:55.097Z,86.56
2017-08-29T05:39:24.410Z,85.41
2017-08-29T05:41:53.948Z,84.99
2017-08-29T05:44:23.490Z,84.92
2017-08-29T05:46:52.895Z,84.75
2017-08-29T05:49:22.253Z,83.68
2017-08-29T05:51:51.636Z,83.56
2017-08-29T05:54:20.930Z,83.06
2017-08-29T05:56:50.506Z,82.99
2017-08-29T05:59:20.441Z,82.98
2017-08-29T06:01:50.047Z,80.72
2017-08-29T06:04:19.357Z,79.48
2017-08-29T06:06:48.968Z,77.15
2017-08-29T06:09:21.447Z,75.46
2017-08-29T06:11:52.982Z,73.82
2017-08-29T06:14:23.376Z,73.38
2017-08-29T06:16:52.867Z,71.35
2017-08-29T06:19:22.181Z,69.00
2017-08-29T06:21:51.501Z,69.26
2017-08-29T06:24:20.812Z,69.03
2017-08-29T06:26:50.136Z,69.32
2017-08-29T06:29:19.517Z,70.84
2017-08-29T06:31:48.941Z,69.02
2017-08-29T06:34:18.280Z,70.94
2017-08-29T06:36:47.616Z,69.71
2017-08-29T06:39:16.911Z,68.29
2017-08-29T06:41:46.356Z,67.29
2017-08-29T06:44:15.748Z,67.32
2017-08-29T06:46:45.697Z,67.44
2017-08-29T06:49:15.377Z,66.76
2017-08-29T06:51:44.954Z,70.06
2017-08-29T06:54:14.287Z,72.64
2017-08-29T06:56:43.637Z,67.62
2017-08-29T06:59:13.257Z,69.48
2017-08-29T07:01:42.680Z,71.15
2017-08-29T07:04:12.037Z,72.99
2017-08-29T07:06:41.501Z,74.36
2017-08-29T07:09:10.909Z,71.33
2017-08-29T07:11:40.261Z,73.47
2017-08-29T07:14:09.569Z,74.76
2017-08-29T07:16:38.958Z,71.85
2017-08-29T07:19:08.281Z,70.90
2017-08-29T07:21:37.674Z,71.65
2017-08-29T07:24:07.051Z,72.34
2017-08-29T07:26:36.604Z,72.00
2017-08-29T07:29:05.944Z,72.20
2017-08-29T07:31:35.309Z,73.88
2017-08-29T07:34:04.619Z,75.85
2017-08-29T07:36:34.038Z,72.70
2017-08-29T07:39:03.382Z,72.60
2017-08-29T07:41:32.922Z,73.17
2017-08-29T07:44:02.353Z,69.58
2017-08-29T07:46:32.036Z,69.38
2017-08-29T07:49:01.469Z,69.03
2017-08-29T07:51:30.919Z,68.31
2017-08-29T07:54:00.665Z,70.19
2017-08-29T07:56:30.052Z,69.95
2017-08-29T07:58:59.424Z,69.29
2017-08-29T08:01:29.047Z,68.41
2017-08-29T08:03:58.561Z,72.54
2017-08-29T08:06:28.265Z,69.97
2017-08-29T08:08:57.638Z,68.37
2017-08-29T08:11:27.579Z,70.25
2017-08-29T08:13:56.900Z,70.97
2017-08-29T08:16:26.230Z,69.95
2017-08-29T08:18:55.540Z,73.67
2017-08-29T08:21:24.944Z,68.81
2017-08-29T08:23:54.470Z,67.92
2017-08-29T08:26:24.056Z,67.62
2017-08-29T08:28:53.332Z,66.24
2017-08-29T08:31:22.670Z,66.52
2017-08-29T08:33:52.012Z,67.96
2017-08-29T08:36:21.403Z,65.13
2017-08-29T08:38:50.771Z,64.98
2017-08-29T08:41:20.155Z,64.44
2017-08-29T08:43:49.521Z,67.06
2017-08-29T08:46:19.840Z,63.70
2017-08-29T08:48:49.160Z,64.29
2017-08-29T08:51:18.753Z,62.94
2017-08-29T08:53:48.196Z,61.64
2017-08-29T08:56:17.672Z,60.78
2017-08-29T08:58:47.031Z,58.06
2017-08-29T09:01:16.378Z,57.88
2017-08-29T09:03:45.677Z,59.20
2017-08-29T09:06:14.993Z,58.86
2017-08-29T09:08:44.866Z,58.43
2017-08-29T09:11:14.352Z,57.94
2017-08-29T09:13:43.692Z,59.77
2017-08-29T09:16:13.161Z,53.40
2017-08-29T09:18:42.505Z,51.15
2017-08-29T09:21:11.905Z,47.54
2017-08-29T09:23:41.293Z,45.72
2017-08-29T09:26:10.960Z,44.27
2017-08-29T09:28:40.275Z,45.31
2017-08-29T09:31:09.640Z,44.44
2017-08-29T09:33:39.184Z,49.22
2017-08-29T09:36:08.775Z,46.63
2017-08-29T09:38:38.250Z,45.96
2017-08-29T09:41:07.625Z,45.01
2017-08-29T09:43:36.975Z,43.57
2017-08-29T09:46:06.337Z,42.77
2017-08-29T09:48:35.652Z,43.41
2017-08-29T09:51:04.971Z,41.63
2017-08-29T09:53:35.441Z,42.09
2017-08-29T09:56:04.795Z,40.38
2017-08-29T09:58:35.103Z,37.96
2017-08-29T10:01:04.495Z,36.29
2017-08-29T10:03:34.141Z,36.78
2017-08-29T10:06:04.096Z,34.56
2017-08-29T10:08:33.473Z,31.85
2017-08-29T10:11:03.000Z,30.99
2017-08-29T10:13:32.312Z,31.85
2017-08-29T10:16:01.676Z,31.09
2017-08-29T10:18:31.193Z,30.91
2017-08-29T10:21:00.685Z,31.83
2017-08-29T10:23:30.028Z,29.83
2017-08-29T10:25:59.369Z,30.49
2017-08-29T10:28:28.688Z,29.87
2017-08-29T10:30:58.004Z,28.77
2017-08-29T10:33:27.371Z,28.74
2017-08-29T10:35:56.900Z,29.31
2017-08-29T10:38:26.216Z,31.14
2017-08-29T10:40:55.553Z,30.79
2017-08-29T10:43:24.845Z,31.63
2017-08-29T10:45:54.351Z,32.05
2017-08-29T10:48:23.721Z,31.49
2017-08-29T10:50:53.192Z,32.28
2017-08-29T10:53:22.616Z,32.66
2017-08-29T10:55:51.964Z,35.63
2017-08-29T10:58:21.263Z,37.21
2017-08-29T11:00:50.621Z,37.33
2017-08-29T11:03:20.057Z,37.85
2017-08-29T11:05:49.506Z,38.97
2017-08-29T11:08:18.852Z,41.32
2017-08-29T11:10:48.165Z,41.58
2017-08-29T11:13:17.685Z,41.34
2017-08-29T11:15:47.029Z,42.74
2017-08-29T11:18:16.402Z,43.47
2017-08-29T11:20:46.172Z,44.79
2017-08-29T11:23:15.717Z,45.98
2017-08-29T11:25:45.127Z,45.74
2017-08-29T11:28:14.468Z,46.33
2017-08-29T11:30:43.788Z,45.86
2017-08-29T11:33:13.104Z,48.86
2017-08-29T11:35:42.486Z,46.57
2017-08-29T11:38:19.928Z,46.74
2017-08-29T11:40:49.605Z,47.53
2017-08-29T11:43:18.940Z,47.36
2017-08-29T11:45:48.267Z,47.56
2017-08-29T11:48:17.604Z,47.07
2017-08-29T11:50:46.968Z,47.87
2017-08-29T11:53:16.308Z,48.40
2017-08-29T11:55:45.717Z,47.40
2017-08-29T11:58:15.218Z,47.61
2017-08-29T12:00:45.183Z,46.38
2017-08-29T12:03:14.500Z,49.87
2017-08-29T12:05:43.842Z,45.95
2017-08-29T12:08:13.144Z,46.62
2017-08-29T12:10:45.496Z,44.91
2017-08-29T12:13:16.543Z,44.43
2017-08-29T12:15:47.585Z,44.51
2017-08-29T12:18:17.180Z,44.47
2017-08-29T12:20:48.194Z,41.97
2017-08-29T12:23:17.840Z,43.70
2017-08-29T12:25:48.640Z,45.16
2017-08-29T12:28:17.908Z,45.41
2017-08-29T12:30:47.312Z,46.44
2017-08-29T12:33:16.636Z,45.06
2017-08-29T12:35:46.010Z,45.04
2017-08-29T12:38:15.415Z,44.37
2017-08-29T12:40:45.276Z,45.38
2017-08-29T12:43:15.565Z,44.21
2017-08-29T12:45:45.064Z,44.66
2017-08-29T12:48:14.478Z,44.59
2017-08-29T12:50:43.957Z,45.69
2017-08-29T12:53:13.384Z,46.03
2017-08-29T12:55:42.717Z,45.58
2017-08-29T12:58:12.098Z,45.93
2017-08-29T13:00:41.475Z,45.75
2017-08-29T13:03:10.831Z,45.51
2017-08-29T13:05:40.161Z,46.52
2017-08-29T13:08:09.680Z,46.58
2017-08-29T13:10:38.982Z,46.20
2017-08-29T13:13:08.288Z,47.52
2017-08-29T13:15:37.717Z,46.36
2017-08-29T13:18:07.055Z,45.50
2017-08-29T13:20:36.682Z,45.21
2017-08-29T13:23:06.201Z,45.37
2017-08-29T13:25:35.765Z,46.12
2017-08-29T13:28:05.098Z,45.95
2017-08-29T13:30:34.879Z,45.82
2017-08-29T13:33:04.369Z,46.63
2017-08-29T13:35:33.802Z,46.24
2017-08-29T13:38:03.128Z,46.55
2017-08-29T13:40:32.473Z,46.97
2017-08-29T13:43:01.805Z,46.08
2017-08-29T13:45:31.117Z,45.24
2017-08-29T13:48:00.456Z,46.46
2017-08-29T13:50:29.777Z,47.00
2017-08-29T13:52:59.586Z,47.88
2017-08-29T13:55:28.937Z,46.09
2017-08-29T13:57:58.234Z,45.74
2017-08-29T14:00:28.284Z,44.67
2017-08-29T14:02:57.703Z,45.25
2017-08-29T14:05:27.603Z,45.37
2017-08-29T14:07:57.044Z,44.15
2017-08-29T14:10:26.396Z,44.27
2017-08-29T14:12:55.794Z,44.38
2017-08-29T14:15:25.497Z,45.10
2017-08-29T14:17:54.962Z,44.92
2017-08-29T14:20:24.319Z,44.66
2017-08-29T14:22:53.599Z,44.71
2017-08-29T14:25:22.892Z,44.34
2017-08-29T14:27:52.191Z,44.50
2017-08-29T14:30:21.648Z,44.32
2017-08-29T14:32:50.994Z,45.52
2017-08-29T14:35:20.323Z,45.59
2017-08-29T14:37:49.649Z,44.94
2017-08-29T14:40:19.152Z,45.09
2017-08-29T14:42:48.499Z,47.20
2017-08-29T14:45:17.802Z,48.33
2017-08-29T14:49:57.393Z,46.65
2017-08-29T14:52:26.749Z,45.43
2017-08-29T14:54:56.101Z,45.15
2017-08-29T14:57:25.487Z,44.59
2017-08-29T14:59:55.476Z,44.32
2017-08-29T15:02:24.909Z,45.34
2017-08-29T15:04:54.449Z,45.51
2017-08-29T15:07:23.931Z,46.13
2017-08-29T15:09:53.309Z,45.52
2017-08-29T15:12:23.054Z,45.92
2017-08-29T15:14:53.288Z,45.99
2017-08-29T15:17:22.758Z,45.42
2017-08-29T15:19:52.124Z,44.59
2017-08-29T15:22:21.549Z,45.08
2017-08-29T15:24:51.169Z,44.71
2017-08-29T15:27:20.704Z,45.46
2017-08-29T15:29:53.368Z,45.86
2017-08-29T15:32:23.109Z,44.76
2017-08-29T15:34:53.917Z,45.35
2017-08-29T15:37:26.957Z,46.03
2017-08-29T15:39:57.654Z,45.50
2017-08-29T15:42:27.228Z,45.82
2017-08-29T15:44:56.902Z,45.49
2017-08-29T15:47:28.998Z,46.02
2017-08-29T15:49:59.592Z,47.71
2017-08-29T15:52:29.907Z,47.62
2017-08-29T15:54:59.575Z,48.68
2017-08-29T15:57:32.187Z,48.10
2017-08-29T16:00:03.965Z,47.99
2017-08-29T16:02:35.573Z,48.55
2017-08-29T16:05:05.638Z,47.71
2017-08-29T16:07:41.389Z,47.88
2017-08-29T16:10:21.112Z,48.25
2017-08-29T16:12:55.105Z,49.02
2017-08-29T16:15:25.037Z,49.36
2017-08-29T16:17:54.386Z,48.12
2017-08-29T16:20:30.874Z,49.55
2017-08-29T16:23:00.285Z,49.73
2017-08-29T16:25:32.869Z,51.73
2017-08-29T16:28:08.095Z,52.08
2017-08-29T16:30:38.241Z,51.17
2017-08-29T16:33:11.343Z,51.65
2017-08-29T16:35:42.017Z,52.26
2017-08-29T16:38:11.558Z,53.04
2017-08-29T16:40:41.189Z,53.45
2017-08-29T16:43:10.658Z,53.45
2017-08-29T16:45:40.100Z,53.34
2017-08-29T16:48:10.816Z,53.92
2017-08-29T16:50:40.395Z,54.40
2017-08-29T16:53:10.059Z,54.82
2017-08-29T16:55:39.925Z,54.95
2017-08-29T16:58:09.338Z,55.22
2017-08-29T17:00:38.824Z,55.41
2017-08-29T17:03:08.180Z,56.41
2017-08-29T17:05:37.637Z,56.54
2017-08-29T17:08:07.056Z,57.00
2017-08-29T17:10:36.815Z,57.35
2017-08-29T17:13:07.742Z,57.42
2017-08-29T17:15:37.330Z,57.42
2017-08-29T17:18:06.734Z,57.63
2017-08-29T17:20:37.286Z,58.46
2017-08-29T17:23:08.885Z,60.03
2017-08-29T17:25:40.279Z,60.29
2017-08-29T17:28:10.317Z,62.16
2017-08-29T17:30:39.710Z,61.56
2017-08-29T17:33:10.786Z,60.82
2017-08-29T17:35:40.386Z,61.83
2017-08-29T17:38:09.873Z,60.91
2017-08-29T17:40:39.339Z,61.16
2017-08-29T17:43:08.732Z,61.62
2017-08-29T17:45:39.153Z,61.66
2017-08-29T17:48:08.673Z,62.05
2017-08-29T17:50:40.620Z,61.96
2017-08-29T17:53:10.369Z,63.80
2017-08-29T17:55:40.638Z,64.45
2017-08-29T17:58:10.008Z,64.12
2017-08-29T18:00:39.651Z,65.04
2017-08-29T18:03:21.813Z,65.63
2017-08-29T18:05:56.266Z,66.13
2017-08-29T18:08:26.030Z,66.86
2017-08-29T18:10:57.662Z,66.32
2017-08-29T18:13:27.061Z,67.67
2017-08-29T18:15:57.776Z,66.19
2017-08-29T18:18:27.847Z,66.81
2017-08-29T18:20:57.696Z,67.47
2017-08-29T18:23:28.152Z,66.86
2017-08-29T18:25:58.460Z,68.01
2017-08-29T18:28:28.028Z,68.19
2017-08-29T18:30:57.593Z,67.88
2017-08-29T18:33:27.524Z,68.28
2017-08-29T18:35:57.124Z,68.46
2017-08-29T18:38:27.619Z,68.27
2017-08-29T18:40:57.149Z,68.94
2017-08-29T18:43:26.540Z,68.29
2017-08-29T18:45:56.125Z,69.83
2017-08-29T18:48:26.002Z,70.02
2017-08-29T18:50:55.407Z,70.13
2017-08-29T18:53:25.287Z,69.30
2017-08-29T18:55:54.720Z,70.48
2017-08-29T18:58:26.234Z,71.37
2017-08-29T19:00:55.741Z,71.93
2017-08-29T19:03:25.031Z,70.17
2017-08-29T19:05:54.372Z,69.47
2017-08-29T19:08:23.793Z,70.34
2017-08-29T19:11:00.023Z,71.15
2017-08-29T19:13:30.235Z,72.12
2017-08-29T19:15:59.592Z,72.86
2017-08-29T19:18:29.133Z,71.61
2017-08-29T19:20:58.839Z,71.14
2017-08-29T19:23:28.149Z,72.04
2017-08-29T19:25:59.108Z,73.64
2017-08-29T19:28:31.079Z,72.82
2017-08-29T19:31:02.149Z,73.40
2017-08-29T19:33:38.192Z,74.27
2017-08-29T19:36:08.938Z,75.14
2017-08-29T19:38:44.282Z,72.64
2017-08-29T19:41:14.380Z,72.75
2017-08-29T19:43:44.349Z,74.61
2017-08-29T19:46:13.834Z,74.05
2017-08-29T19:48:43.263Z,74.16
2017-08-29T19:51:12.748Z,74.62
2017-08-29T19:53:42.817Z,75.10
2017-08-29T19:56:14.333Z,74.45
2017-08-29T19:58:55.274Z,73.72
2017-08-29T20:01:29.380Z,74.47
2017-08-29T20:03:59.412Z,73.97
2017-08-29T20:06:28.900Z,74.35
2017-08-29T20:08:58.568Z,74.97
2017-08-29T20:11:28.238Z,75.46
2017-08-29T20:13:57.943Z,76.19
2017-08-29T20:16:27.989Z,75.74
2017-08-29T20:18:57.412Z,75.83
2017-08-29T20:21:26.840Z,75.56
2017-08-29T20:23:56.350Z,75.93
2017-08-29T20:26:26.624Z,77.84
2017-08-29T20:28:56.344Z,75.73
2017-08-29T20:31:26.702Z,76.49
2017-08-29T20:33:57.426Z,76.58
2017-08-29T20:36:26.964Z,76.33
2017-08-29T20:38:56.732Z,77.67
2017-08-29T20:41:28.157Z,78.19
2017-08-29T20:43:58.031Z,76.03
2017-08-29T20:46:29.696Z,77.47
2017-08-29T20:49:06.112Z,77.34
2017-08-29T20:51:37.930Z,78.47
2017-08-29T20:54:07.368Z,79.03
2017-08-29T20:56:37.156Z,80.16
2017-08-29T20:59:06.637Z,78.69
2017-08-29T21:01:36.052Z,80.41
2017-08-29T21:04:05.997Z,78.40
2017-08-29T21:06:35.544Z,77.28
2017-08-29T21:09:04.969Z,79.84
2017-08-29T21:11:34.398Z,80.07
2017-08-29T21:14:03.756Z,79.02
2017-08-29T21:16:33.310Z,78.38
2017-08-29T21:19:02.878Z,79.53
2017-08-29T21:21:32.288Z,78.03
2017-08-29T21:24:01.659Z,78.97
2017-08-29T21:26:31.027Z,77.91
2017-08-29T21:29:00.885Z,77.99
2017-08-29T21:31:30.620Z,77.51
2017-08-29T21:34:00.081Z,79.02
2017-08-29T21:36:29.447Z,79.46
2017-08-29T21:38:58.778Z,79.36
2017-08-29T21:41:28.137Z,79.46
2017-08-29T21:43:57.461Z,79.93
2017-08-29T21:46:26.956Z,79.75
2017-08-29T21:48:56.386Z,80.40
2017-08-29T21:51:25.825Z,80.40
2017-08-29T21:53:55.289Z,79.64
2017-08-29T21:56:24.685Z,80.97
2017-08-29T21:58:54.012Z,79.02
2017-08-29T22:01:24.058Z,79.79
2017-08-29T22:03:53.394Z,81.70
2017-08-29T22:06:22.704Z,82.06
2017-08-29T22:08:52.267Z,79.68
2017-08-29T22:11:21.674Z,80.49
2017-08-29T22:13:51.011Z,80.53
2017-08-29T22:16:20.351Z,80.34
2017-08-29T22:18:49.682Z,79.91
2017-08-29T22:21:19.049Z,80.01
2017-08-29T22:23:48.377Z,79.69
2017-08-29T22:26:17.677Z,81.10
2017-08-29T22:28:47.005Z,80.89
2017-08-29T22:31:16.495Z,82.37
2017-08-29T22:33:45.812Z,83.05
2017-08-29T22:36:15.281Z,80.80
2017-08-29T22:38:44.715Z,80.67
2017-08-29T22:41:14.073Z,80.64
2017-08-29T22:43:43.392Z,81.78
2017-08-29T22:46:13.043Z,81.64
2017-08-29T22:48:42.381Z,81.22
2017-08-29T22:51:11.695Z,82.05
2017-08-29T22:53:40.990Z,82.26
2017-08-29T22:56:10.349Z,83.01
2017-08-29T22:58:39.652Z,83.03
2017-08-29T23:01:08.988Z,82.85
2017-08-29T23:03:38.364Z,83.09
2017-08-29T23:06:07.720Z,82.69
2017-08-29T23:08:37.048Z,81.29
2017-08-29T23:11:06.549Z,82.62
2017-08-29T23:13:35.868Z,83.05
2017-08-29T23:16:05.213Z,83.43
2017-08-29T23:18:34.551Z,81.43
2017-08-29T23:21:03.974Z,82.21
2017-08-29T23:23:33.277Z,83.78
2017-08-29T23:26:02.592Z,83.45
2017-08-29T23:28:31.901Z,83.95
2017-08-29T23:31:02.305Z,84.09
2017-08-29T23:33:31.746Z,83.79
2017-08-29T23:36:01.079Z,81.75
2017-08-29T23:38:30.799Z,83.25
2017-08-29T23:41:00.181Z,83.29
2017-08-29T23:43:29.487Z,82.55
2017-08-29T23:45:58.797Z,82.33
2017-08-29T23:48:28.222Z,82.07
2017-08-29T23:50:58.108Z,82.66
2017-08-29T23:53:27.792Z,83.31
2017-08-29T23:55:57.469Z,82.77
2017-08-29T23:58:26.897Z,83.04
